Arinos, Brazil
Current Conditions -  °F | °C
As of 2:00 PM on Friday 28 Nov 2014 (Local Time) from SBCY Reporting Station
Broken Clouds Broken Clouds  
Wind Chill: 88°   Ceiling: 10000
Heat Index: 93°   Visibility: 6mi
Dew Point: 70°   Wind: 14mph
Humidity: 55%   Direction: 360°N
Pressure: 29.83"   Gusts: NA
Location:  14.03°S, 56.47°W
Report Text: SBCY 281700Z 36012KT 9999 SCT020 FEW025TCU BKN100 31/21 Q1010
Loading
Personal Weather Stations






























Interactive Weather Map New forecast layout! Learn more

10-Day Weather Forecast

Advertisements
Track Severe Weather on mobile